<?xml version="1.0" encoding="UTF-8" standalone="no" ?>
<gpx xmlns="http://www.topografix.com/GPX/1/1" xmlns:xsi="http://www.w3.org/2001/XMLSchema-instance" xsi:schemaLocation="http://www.topografix.com/GPX/1/1 http://www.topografix.com/GPX/1/1/gpx.xsd" version="1.1" creator="VisuGPX - https://www.visugpx.com">
  <metadata>
    <name>savenay-cordemais-lavau</name>
    <desc><![CDATA[Circuit partant partant de Savenay pour rejoindre Cordemais,puis retour par lavau s / Loire.Passages dans les marais et joli point de vu sur l'estuaire de la Loire à cordemais. Retour par le trou bleu à Lavau s/Loire.]]></desc>
  </metadata>
  <trk>
    <name><![CDATA[Savenay-cordemais-lavau Sur Loire on GPSies.com]]></name>
    <trkseg>
      <trkpt lat="47.3411" lon="-1.91959">
        <ele>78.00403</ele>
        <time>2009-11-04T07:57:14Z</time>
      </trkpt>
      <trkpt lat="47.34147" lon="-1.91987">
        <ele>76.56213</ele>
        <time>2009-11-04T07:57:21Z</time>
      </trkpt>
      <trkpt lat="47.3419" lon="-1.92036">
        <ele>75.60083</ele>
        <time>2009-11-04T07:57:30Z</time>
      </trkpt>
      <trkpt lat="47.34232" lon="-1.92084">
        <ele>74.63953</ele>
        <time>2009-11-04T07:57:39Z</time>
      </trkpt>
      <trkpt lat="47.3427" lon="-1.92137">
        <ele>74.63953</ele>
        <time>2009-11-04T07:57:48Z</time>
      </trkpt>
      <trkpt lat="47.34289" lon="-1.92182">
        <ele>73.67822</ele>
        <time>2009-11-04T07:57:54Z</time>
      </trkpt>
      <trkpt lat="47.34311" lon="-1.92244">
        <ele>72.23621</ele>
        <time>2009-11-04T07:58:02Z</time>
      </trkpt>
      <trkpt lat="47.34334" lon="-1.9228">
        <ele>72.71692</ele>
        <time>2009-11-04T07:58:08Z</time>
      </trkpt>
      <trkpt lat="47.34361" lon="-1.92314">
        <ele>73.19763</ele>
        <time>2009-11-04T07:58:15Z</time>
      </trkpt>
      <trkpt lat="47.34387" lon="-1.92346">
        <ele>73.67822</ele>
        <time>2009-11-04T07:58:22Z</time>
      </trkpt>
      <trkpt lat="47.34409" lon="-1.92387">
        <ele>74.15881</ele>
        <time>2009-11-04T07:58:29Z</time>
      </trkpt>
      <trkpt lat="47.34435" lon="-1.92436">
        <ele>72.23621</ele>
        <time>2009-11-04T07:58:37Z</time>
      </trkpt>
      <trkpt lat="47.34442" lon="-1.92448">
        <ele>71.75549</ele>
        <time>2009-11-04T07:58:39Z</time>
      </trkpt>
      <trkpt lat="47.3445" lon="-1.92461">
        <ele>70.79419</ele>
        <time>2009-11-04T07:58:41Z</time>
      </trkpt>
      <trkpt lat="47.34462" lon="-1.92479">
        <ele>69.83289</ele>
        <time>2009-11-04T07:58:44Z</time>
      </trkpt>
      <trkpt lat="47.34469" lon="-1.92501">
        <ele>68.87158</ele>
        <time>2009-11-04T07:58:47Z</time>
      </trkpt>
      <trkpt lat="47.34458" lon="-1.92519">
        <ele>69.35229</ele>
        <time>2009-11-04T07:58:50Z</time>
      </trkpt>
      <trkpt lat="47.34418" lon="-1.92553">
        <ele>68.87158</ele>
        <time>2009-11-04T07:58:58Z</time>
      </trkpt>
      <trkpt lat="47.34383" lon="-1.92571">
        <ele>68.39087</ele>
        <time>2009-11-04T07:59:04Z</time>
      </trkpt>
      <trkpt lat="47.34342" lon="-1.92578">
        <ele>68.39087</ele>
        <time>2009-11-04T07:59:11Z</time>
      </trkpt>
      <trkpt lat="47.34301" lon="-1.92578">
        <ele>67.91028</ele>
        <time>2009-11-04T07:59:18Z</time>
      </trkpt>
      <trkpt lat="47.34284" lon="-1.92571">
        <ele>67.91028</ele>
        <time>2009-11-04T07:59:21Z</time>
      </trkpt>
      <trkpt lat="47.34266" lon="-1.9258">
        <ele>67.91028</ele>
        <time>2009-11-04T07:59:25Z</time>
      </trkpt>
      <trkpt lat="47.34263" lon="-1.92588">
        <ele>67.91028</ele>
        <time>2009-11-04T07:59:26Z</time>
      </trkpt>
      <trkpt lat="47.34245" lon="-1.92656">
        <ele>67.42969</ele>
        <time>2009-11-04T07:59:35Z</time>
      </trkpt>
      <trkpt lat="47.3423" lon="-1.92717">
        <ele>66.94897</ele>
        <time>2009-11-04T07:59:43Z</time>
      </trkpt>
      <trkpt lat="47.34219" lon="-1.92752">
        <ele>66.46826</ele>
        <time>2009-11-04T07:59:48Z</time>
      </trkpt>
      <trkpt lat="47.3421" lon="-1.92787">
        <ele>66.46826</ele>
        <time>2009-11-04T07:59:53Z</time>
      </trkpt>
      <trkpt lat="47.34203" lon="-1.92814">
        <ele>66.46826</ele>
        <time>2009-11-04T07:59:57Z</time>
      </trkpt>
      <trkpt lat="47.34189" lon="-1.92867">
        <ele>66.46826</ele>
        <time>2009-11-04T08:00:05Z</time>
      </trkpt>
      <trkpt lat="47.34179" lon="-1.92904">
        <ele>65.50708</ele>
        <time>2009-11-04T08:00:11Z</time>
      </trkpt>
      <trkpt lat="47.34177" lon="-1.92911">
        <ele>65.02637</ele>
        <time>2009-11-04T08:00:12Z</time>
      </trkpt>
      <trkpt lat="47.34169" lon="-1.92939">
        <ele>65.50708</ele>
        <time>2009-11-04T08:00:17Z</time>
      </trkpt>
      <trkpt lat="47.34166" lon="-1.92957">
        <ele>65.50708</ele>
        <time>2009-11-04T08:00:20Z</time>
      </trkpt>
      <trkpt lat="47.34159" lon="-1.92986">
        <ele>65.50708</ele>
        <time>2009-11-04T08:00:25Z</time>
      </trkpt>
      <trkpt lat="47.34154" lon="-1.93003">
        <ele>64.54565</ele>
        <time>2009-11-04T08:00:28Z</time>
      </trkpt>
      <trkpt lat="47.34144" lon="-1.93036">
        <ele>64.54565</ele>
        <time>2009-11-04T08:00:34Z</time>
      </trkpt>
      <trkpt lat="47.3413" lon="-1.93042">
        <ele>64.54565</ele>
        <time>2009-11-04T08:00:38Z</time>
      </trkpt>
      <trkpt lat="47.34085" lon="-1.93053">
        <ele>64.06506</ele>
        <time>2009-11-04T08:00:48Z</time>
      </trkpt>
      <trkpt lat="47.34042" lon="-1.93063">
        <ele>63.58435</ele>
        <time>2009-11-04T08:00:57Z</time>
      </trkpt>
      <trkpt lat="47.34007" lon="-1.93072">
        <ele>63.58435</ele>
        <time>2009-11-04T08:01:05Z</time>
      </trkpt>
      <trkpt lat="47.3397" lon="-1.93079">
        <ele>63.10364</ele>
        <time>2009-11-04T08:01:14Z</time>
      </trkpt>
      <trkpt lat="47.33935" lon="-1.93088">
        <ele>63.10364</ele>
        <time>2009-11-04T08:01:23Z</time>
      </trkpt>
      <trkpt lat="47.33902" lon="-1.93096">
        <ele>62.62292</ele>
        <time>2009-11-04T08:01:31Z</time>
      </trkpt>
      <trkpt lat="47.3389" lon="-1.93098">
        <ele>62.62292</ele>
        <time>2009-11-04T08:01:34Z</time>
      </trkpt>
      <trkpt lat="47.33873" lon="-1.93113">
        <ele>62.62292</ele>
        <time>2009-11-04T08:01:39Z</time>
      </trkpt>
      <trkpt lat="47.33851" lon="-1.93137">
        <ele>62.14233</ele>
        <time>2009-11-04T08:01:46Z</time>
      </trkpt>
      <trkpt lat="47.33823" lon="-1.93166">
        <ele>62.14233</ele>
        <time>2009-11-04T08:01:54Z</time>
      </trkpt>
      <trkpt lat="47.33798" lon="-1.93191">
        <ele>61.66174</ele>
        <time>2009-11-04T08:02:01Z</time>
      </trkpt>
      <trkpt lat="47.33772" lon="-1.93196">
        <ele>61.18103</ele>
        <time>2009-11-04T08:02:07Z</time>
      </trkpt>
      <trkpt lat="47.3376" lon="-1.93191">
        <ele>61.18103</ele>
        <time>2009-11-04T08:02:10Z</time>
      </trkpt>
      <trkpt lat="47.33739" lon="-1.93174">
        <ele>60.70032</ele>
        <time>2009-11-04T08:02:17Z</time>
      </trkpt>
      <trkpt lat="47.33732" lon="-1.93173">
        <ele>61.18103</ele>
        <time>2009-11-04T08:02:19Z</time>
      </trkpt>
      <trkpt lat="47.33719" lon="-1.93177">
        <ele>60.70032</ele>
        <time>2009-11-04T08:02:24Z</time>
      </trkpt>
      <trkpt lat="47.33696" lon="-1.93165">
        <ele>60.70032</ele>
        <time>2009-11-04T08:02:31Z</time>
      </trkpt>
      <trkpt lat="47.33675" lon="-1.93175">
        <ele>60.21973</ele>
        <time>2009-11-04T08:02:37Z</time>
      </trkpt>
      <trkpt lat="47.33649" lon="-1.93186">
        <ele>60.70032</ele>
        <time>2009-11-04T08:02:44Z</time>
      </trkpt>
      <trkpt lat="47.33618" lon="-1.93197">
        <ele>60.21973</ele>
        <time>2009-11-04T08:02:52Z</time>
      </trkpt>
      <trkpt lat="47.33594" lon="-1.93208">
        <ele>60.21973</ele>
        <time>2009-11-04T08:02:59Z</time>
      </trkpt>
      <trkpt lat="47.33571" lon="-1.93216">
        <ele>59.73914</ele>
        <time>2009-11-04T08:03:05Z</time>
      </trkpt>
      <trkpt lat="47.33563" lon="-1.93219">
        <ele>59.73914</ele>
        <time>2009-11-04T08:03:07Z</time>
      </trkpt>
      <trkpt lat="47.33535" lon="-1.93233">
        <ele>59.73914</ele>
        <time>2009-11-04T08:03:14Z</time>
      </trkpt>
      <trkpt lat="47.33512" lon="-1.93242">
        <ele>59.25842</ele>
        <time>2009-11-04T08:03:20Z</time>
      </trkpt>
      <trkpt lat="47.3349" lon="-1.93248">
        <ele>58.77771</ele>
        <time>2009-11-04T08:03:26Z</time>
      </trkpt>
      <trkpt lat="47.33472" lon="-1.93246">
        <ele>58.77771</ele>
        <time>2009-11-04T08:03:31Z</time>
      </trkpt>
      <trkpt lat="47.33436" lon="-1.93241">
        <ele>58.77771</ele>
        <time>2009-11-04T08:03:39Z</time>
      </trkpt>
      <trkpt lat="47.33387" lon="-1.93233">
        <ele>58.77771</ele>
        <time>2009-11-04T08:03:50Z</time>
      </trkpt>
      <trkpt lat="47.33353" lon="-1.93228">
        <ele>58.77771</ele>
        <time>2009-11-04T08:03:58Z</time>
      </trkpt>
      <trkpt lat="47.33344" lon="-1.93227">
        <ele>58.29712</ele>
        <time>2009-11-04T08:04:00Z</time>
      </trkpt>
      <trkpt lat="47.33333" lon="-1.93239">
        <ele>58.29712</ele>
        <time>2009-11-04T08:04:04Z</time>
      </trkpt>
      <trkpt lat="47.33332" lon="-1.93252">
        <ele>58.29712</ele>
        <time>2009-11-04T08:04:06Z</time>
      </trkpt>
      <trkpt lat="47.33325" lon="-1.93316">
        <ele>57.33582</ele>
        <time>2009-11-04T08:04:15Z</time>
      </trkpt>
      <trkpt lat="47.33319" lon="-1.93363">
        <ele>57.33582</ele>
        <time>2009-11-04T08:04:22Z</time>
      </trkpt>
      <trkpt lat="47.33312" lon="-1.93414">
        <ele>57.33582</ele>
        <time>2009-11-04T08:04:30Z</time>
      </trkpt>
      <trkpt lat="47.33305" lon="-1.93462">
        <ele>56.8551</ele>
        <time>2009-11-04T08:04:38Z</time>
      </trkpt>
      <trkpt lat="47.33299" lon="-1.93504">
        <ele>56.8551</ele>
        <time>2009-11-04T08:04:45Z</time>
      </trkpt>
      <trkpt lat="47.33292" lon="-1.93551">
        <ele>56.37451</ele>
        <time>2009-11-04T08:04:53Z</time>
      </trkpt>
      <trkpt lat="47.33286" lon="-1.93597">
        <ele>56.37451</ele>
        <time>2009-11-04T08:05:01Z</time>
      </trkpt>
      <trkpt lat="47.33279" lon="-1.9364">
        <ele>56.37451</ele>
        <time>2009-11-04T08:05:09Z</time>
      </trkpt>
      <trkpt lat="47.33275" lon="-1.93671">
        <ele>55.8938</ele>
        <time>2009-11-04T08:05:15Z</time>
      </trkpt>
      <trkpt lat="47.33269" lon="-1.93713">
        <ele>55.41309</ele>
        <time>2009-11-04T08:05:23Z</time>
      </trkpt>
      <trkpt lat="47.33262" lon="-1.93762">
        <ele>54.93237</ele>
        <time>2009-11-04T08:05:32Z</time>
      </trkpt>
      <trkpt lat="47.33254" lon="-1.93814">
        <ele>54.45178</ele>
        <time>2009-11-04T08:05:41Z</time>
      </trkpt>
      <trkpt lat="47.33249" lon="-1.93853">
        <ele>53.49048</ele>
        <time>2009-11-04T08:05:48Z</time>
      </trkpt>
      <trkpt lat="47.33241" lon="-1.93905">
        <ele>53.49048</ele>
        <time>2009-11-04T08:05:57Z</time>
      </trkpt>
      <trkpt lat="47.33232" lon="-1.93961">
        <ele>53.49048</ele>
        <time>2009-11-04T08:06:07Z</time>
      </trkpt>
      <trkpt lat="47.33226" lon="-1.94005">
        <ele>53.49048</ele>
        <time>2009-11-04T08:06:15Z</time>
      </trkpt>
      <trkpt lat="47.3322" lon="-1.94038">
        <ele>53.00977</ele>
        <time>2009-11-04T08:06:21Z</time>
      </trkpt>
      <trkpt lat="47.33214" lon="-1.94082">
        <ele>53.49048</ele>
        <time>2009-11-04T08:06:29Z</time>
      </trkpt>
      <trkpt lat="47.33206" lon="-1.94133">
        <ele>53.49048</ele>
        <time>2009-11-04T08:06:38Z</time>
      </trkpt>
      <trkpt lat="47.33199" lon="-1.9418">
        <ele>53.00977</ele>
        <time>2009-11-04T08:06:46Z</time>
      </trkpt>
      <trkpt lat="47.3319" lon="-1.94237">
        <ele>53.00977</ele>
        <time>2009-11-04T08:06:56Z</time>
      </trkpt>
      <trkpt lat="47.33183" lon="-1.94289">
        <ele>52.52917</ele>
        <time>2009-11-04T08:07:05Z</time>
      </trkpt>
      <trkpt lat="47.33173" lon="-1.94352">
        <ele>52.52917</ele>
        <time>2009-11-04T08:07:16Z</time>
      </trkpt>
      <trkpt lat="47.33165" lon="-1.9441">
        <ele>52.04858</ele>
        <time>2009-11-04T08:07:26Z</time>
      </trkpt>
      <trkpt lat="47.33157" lon="-1.94463">
        <ele>52.04858</ele>
        <time>2009-11-04T08:07:35Z</time>
      </trkpt>
      <trkpt lat="47.33149" lon="-1.94516">
        <ele>51.56787</ele>
        <time>2009-11-04T08:07:44Z</time>
      </trkpt>
      <trkpt lat="47.33145" lon="-1.94543">
        <ele>51.08716</ele>
        <time>2009-11-04T08:07:49Z</time>
      </trkpt>
      <trkpt lat="47.33141" lon="-1.94572">
        <ele>50.60657</ele>
        <time>2009-11-04T08:07:55Z</time>
      </trkpt>
      <trkpt lat="47.33134" lon="-1.94615">
        <ele>49.64526</ele>
        <time>2009-11-04T08:08:03Z</time>
      </trkpt>
      <trkpt lat="47.33127" lon="-1.9466">
        <ele>49.64526</ele>
        <time>2009-11-04T08:08:11Z</time>
      </trkpt>
      <trkpt lat="47.33121" lon="-1.947">
        <ele>49.16455</ele>
        <time>2009-11-04T08:08:18Z</time>
      </trkpt>
      <trkpt lat="47.33113" lon="-1.94753">
        <ele>49.16455</ele>
        <time>2009-11-04T08:08:27Z</time>
      </trkpt>
      <trkpt lat="47.33106" lon="-1.94803">
        <ele>48.20337</ele>
        <time>2009-11-04T08:08:36Z</time>
      </trkpt>
      <trkpt lat="47.331" lon="-1.94848">
        <ele>49.16455</ele>
        <time>2009-11-04T08:08:44Z</time>
      </trkpt>
      <trkpt lat="47.33094" lon="-1.94886">
        <ele>49.64526</ele>
        <time>2009-11-04T08:08:51Z</time>
      </trkpt>
      <trkpt lat="47.33089" lon="-1.94924">
        <ele>49.16455</ele>
        <time>2009-11-04T08:08:58Z</time>
      </trkpt>
      <trkpt lat="47.33083" lon="-1.94963">
        <ele>48.68396</ele>
        <time>2009-11-04T08:09:05Z</time>
      </trkpt>
      <trkpt lat="47.33076" lon="-1.95013">
        <ele>49.64526</ele>
        <time>2009-11-04T08:09:14Z</time>
      </trkpt>
      <trkpt lat="47.33069" lon="-1.95064">
        <ele>49.16455</ele>
        <time>2009-11-04T08:09:23Z</time>
      </trkpt>
      <trkpt lat="47.33064" lon="-1.95096">
        <ele>48.68396</ele>
        <time>2009-11-04T08:09:29Z</time>
      </trkpt>
      <trkpt lat="47.3306" lon="-1.95121">
        <ele>48.68396</ele>
        <time>2009-11-04T08:09:34Z</time>
      </trkpt>
      <trkpt lat="47.33054" lon="-1.95144">
        <ele>48.68396</ele>
        <time>2009-11-04T08:09:39Z</time>
      </trkpt>
      <trkpt lat="47.33037" lon="-1.95151">
        <ele>48.68396</ele>
        <time>2009-11-04T08:09:44Z</time>
      </trkpt>
      <trkpt lat="47.33026" lon="-1.95156">
        <ele>48.68396</ele>
        <time>2009-11-04T08:09:47Z</time>
      </trkpt>
      <trkpt lat="47.32992" lon="-1.95162">
        <ele>48.20337</ele>
        <time>2009-11-04T08:09:56Z</time>
      </trkpt>
      <trkpt lat="47.32987" lon="-1.95164">
        <ele>48.20337</ele>
        <time>2009-11-04T08:10:01Z</time>
      </trkpt>
      <trkpt lat="47.32987" lon="-1.95163">
        <ele>47.72253</ele>
        <time>2009-11-04T08:10:11Z</time>
      </trkpt>
      <trkpt lat="47.32987" lon="-1.95165">
        <ele>46.76123</ele>
        <time>2009-11-04T08:10:36Z</time>
      </trkpt>
      <trkpt lat="47.32988" lon="-1.95165">
        <ele>43.39661</ele>
        <time>2009-11-04T08:11:56Z</time>
      </trkpt>
      <trkpt lat="47.32989" lon="-1.95166">
        <ele>43.39661</ele>
        <time>2009-11-04T08:12:12Z</time>
      </trkpt>
      <trkpt lat="47.3299" lon="-1.95167">
        <ele>42.43542</ele>
        <time>2009-11-04T08:12:32Z</time>
      </trkpt>
      <trkpt lat="47.32981" lon="-1.95169">
        <ele>40.51282</ele>
        <time>2009-11-04T08:13:44Z</time>
      </trkpt>
      <trkpt lat="47.32965" lon="-1.95171">
        <ele>40.0321</ele>
        <time>2009-11-04T08:13:49Z</time>
      </trkpt>
      <trkpt lat="47.3293" lon="-1.95182">
        <ele>40.0321</ele>
        <time>2009-11-04T08:13:57Z</time>
      </trkpt>
      <trkpt lat="47.32887" lon="-1.95201">
        <ele>39.07068</ele>
        <time>2009-11-04T08:14:07Z</time>
      </trkpt>
      <trkpt lat="47.32849" lon="-1.95221">
        <ele>39.07068</ele>
        <time>2009-11-04T08:14:16Z</time>
      </trkpt>
      <trkpt lat="47.32819" lon="-1.95237">
        <ele>39.55127</ele>
        <time>2009-11-04T08:14:24Z</time>
      </trkpt>
      <trkpt lat="47.32809" lon="-1.95241">
        <ele>39.55127</ele>
        <time>2009-11-04T08:14:29Z</time>
      </trkpt>
      <trkpt lat="47.32808" lon="-1.95241">
        <ele>39.07068</ele>
        <time>2009-11-04T08:14:32Z</time>
      </trkpt>
      <trkpt lat="47.32805" lon="-1.95224">
        <ele>39.07068</ele>
        <time>2009-11-04T08:14:38Z</time>
      </trkpt>
      <trkpt lat="47.32804" lon="-1.95202">
        <ele>38.59009</ele>
        <time>2009-11-04T08:14:42Z</time>
      </trkpt>
      <trkpt lat="47.32802" lon="-1.95153">
        <ele>37.62866</ele>
        <time>2009-11-04T08:14:49Z</time>
      </trkpt>
      <trkpt lat="47.32801" lon="-1.95138">
        <ele>35.22546</ele>
        <time>2009-11-04T08:14:51Z</time>
      </trkpt>
      <trkpt lat="47.328" lon="-1.95122">
        <ele>37.62866</ele>
        <time>2009-11-04T08:14:53Z</time>
      </trkpt>
      <trkpt lat="47.32798" lon="-1.95056">
        <ele>37.62866</ele>
        <time>2009-11-04T08:15:01Z</time>
      </trkpt>
      <trkpt lat="47.32795" lon="-1.94972">
        <ele>37.14807</ele>
        <time>2009-11-04T08:15:11Z</time>
      </trkpt>
      <trkpt lat="47.32792" lon="-1.94904">
        <ele>37.14807</ele>
        <time>2009-11-04T08:15:19Z</time>
      </trkpt>
      <trkpt lat="47.32788" lon="-1.94855">
        <ele>36.66748</ele>
        <time>2009-11-04T08:15:25Z</time>
      </trkpt>
      <trkpt lat="47.32777" lon="-1.94801">
        <ele>36.18677</ele>
        <time>2009-11-04T08:15:32Z</time>
      </trkpt>
      <trkpt lat="47.32766" lon="-1.94747">
        <ele>35.70605</ele>
        <time>2009-11-04T08:15:39Z</time>
      </trkpt>
      <trkpt lat="47.3275" lon="-1.94669">
        <ele>35.22546</ele>
        <time>2009-11-04T08:15:49Z</time>
      </trkpt>
      <trkpt lat="47.32732" lon="-1.94576">
        <ele>35.22546</ele>
        <time>2009-11-04T08:16:01Z</time>
      </trkpt>
      <trkpt lat="47.32717" lon="-1.94499">
        <ele>35.22546</ele>
        <time>2009-11-04T08:16:11Z</time>
      </trkpt>
      <trkpt lat="47.32703" lon="-1.94428">
        <ele>33.78345</ele>
        <time>2009-11-04T08:16:20Z</time>
      </trkpt>
      <trkpt lat="47.32696" lon="-1.94379">
        <ele>34.74487</ele>
        <time>2009-11-04T08:16:27Z</time>
      </trkpt>
      <trkpt lat="47.32695" lon="-1.94361">
        <ele>35.22546</ele>
        <time>2009-11-04T08:16:31Z</time>
      </trkpt>
      <trkpt lat="47.32694" lon="-1.94359">
        <ele>35.70605</ele>
        <time>2009-11-04T08:16:37Z</time>
      </trkpt>
      <trkpt lat="47.32694" lon="-1.94361">
        <ele>33.78345</ele>
        <time>2009-11-04T08:16:58Z</time>
      </trkpt>
      <trkpt lat="47.32695" lon="-1.94362">
        <ele>33.78345</ele>
        <time>2009-11-04T08:17:24Z</time>
      </trkpt>
      <trkpt lat="47.32695" lon="-1.94361">
        <ele>33.30286</ele>
        <time>2009-11-04T08:17:26Z</time>
      </trkpt>
      <trkpt lat="47.32693" lon="-1.94341">
        <ele>33.78345</ele>
        <time>2009-11-04T08:17:32Z</time>
      </trkpt>
      <trkpt lat="47.32692" lon="-1.94312">
        <ele>33.78345</ele>
        <time>2009-11-04T08:17:37Z</time>
      </trkpt>
      <trkpt lat="47.32693" lon="-1.94252">
        <ele>33.78345</ele>
        <time>2009-11-04T08:17:45Z</time>
      </trkpt>
      <trkpt lat="47.32698" lon="-1.94193">
        <ele>33.30286</ele>
        <time>2009-11-04T08:17:53Z</time>
      </trkpt>
      <trkpt lat="47.32702" lon="-1.94142">
        <ele>34.26416</ele>
        <time>2009-11-04T08:18:00Z</time>
      </trkpt>
      <trkpt lat="47.32702" lon="-1.94135">
        <ele>35.22546</ele>
        <time>2009-11-04T08:18:01Z</time>
      </trkpt>
      <trkpt lat="47.32696" lon="-1.94084">
        <ele>36.18677</ele>
        <time>2009-11-04T08:18:09Z</time>
      </trkpt>
      <trkpt lat="47.32686" lon="-1.94037">
        <ele>36.66748</ele>
        <time>2009-11-04T08:18:17Z</time>
      </trkpt>
      <trkpt lat="47.32678" lon="-1.94001">
        <ele>36.18677</ele>
        <time>2009-11-04T08:18:23Z</time>
      </trkpt>
      <trkpt lat="47.32671" lon="-1.93968">
        <ele>35.70605</ele>
        <time>2009-11-04T08:18:29Z</time>
      </trkpt>
      <trkpt lat="47.32663" lon="-1.93926">
        <ele>36.66748</ele>
        <time>2009-11-04T08:18:36Z</time>
      </trkpt>
      <trkpt lat="47.32647" lon="-1.9388">
        <ele>37.14807</ele>
        <time>2009-11-04T08:18:43Z</time>
      </trkpt>
      <trkpt lat="47.32623" lon="-1.93838">
        <ele>36.18677</ele>
        <time>2009-11-04T08:18:50Z</time>
      </trkpt>
      <trkpt lat="47.32601" lon="-1.93817">
        <ele>36.18677</ele>
        <time>2009-11-04T08:18:56Z</time>
      </trkpt>
      <trkpt lat="47.32598" lon="-1.93816">
        <ele>36.18677</ele>
        <time>2009-11-04T08:18:57Z</time>
      </trkpt>
      <trkpt lat="47.32594" lon="-1.93804">
        <ele>35.70605</ele>
        <time>2009-11-04T08:19:02Z</time>
      </trkpt>
      <trkpt lat="47.32593" lon="-1.93804">
        <ele>36.18677</ele>
        <time>2009-11-04T08:19:04Z</time>
      </trkpt>
      <trkpt lat="47.3258" lon="-1.93814">
        <ele>36.18677</ele>
        <time>2009-11-04T08:19:10Z</time>
      </trkpt>
      <trkpt lat="47.3256" lon="-1.93824">
        <ele>36.18677</ele>
        <time>2009-11-04T08:19:15Z</time>
      </trkpt>
      <trkpt lat="47.32545" lon="-1.93823">
        <ele>35.70605</ele>
        <time>2009-11-04T08:19:19Z</time>
      </trkpt>
      <trkpt lat="47.32541" lon="-1.93806">
        <ele>35.70605</ele>
        <time>2009-11-04T08:19:22Z</time>
      </trkpt>
      <trkpt lat="47.32538" lon="-1.93763">
        <ele>35.70605</ele>
        <time>2009-11-04T08:19:28Z</time>
      </trkpt>
      <trkpt lat="47.32536" lon="-1.93734">
        <ele>36.18677</ele>
        <time>2009-11-04T08:19:32Z</time>
      </trkpt>
      <trkpt lat="47.32533" lon="-1.93719">
        <ele>36.18677</ele>
        <time>2009-11-04T08:19:34Z</time>
      </trkpt>
      <trkpt lat="47.32516" lon="-1.93665">
        <ele>37.62866</ele>
        <time>2009-11-04T08:19:42Z</time>
      </trkpt>
      <trkpt lat="47.32504" lon="-1.93626">
        <ele>37.14807</ele>
        <time>2009-11-04T08:19:48Z</time>
      </trkpt>
      <trkpt lat="47.32491" lon="-1.93573">
        <ele>37.14807</ele>
        <time>2009-11-04T08:19:55Z</time>
      </trkpt>
      <trkpt lat="47.32479" lon="-1.93516">
        <ele>36.66748</ele>
        <time>2009-11-04T08:20:02Z</time>
      </trkpt>
      <trkpt lat="47.32477" lon="-1.93509">
        <ele>36.18677</ele>
        <time>2009-11-04T08:20:03Z</time>
      </trkpt>
      <trkpt lat="47.32468" lon="-1.93462">
        <ele>35.70605</ele>
        <time>2009-11-04T08:20:09Z</time>
      </trkpt>
      <trkpt lat="47.32447" lon="-1.93431">
        <ele>34.26416</ele>
        <time>2009-11-04T08:20:14Z</time>
      </trkpt>
      <trkpt lat="47.32442" lon="-1.93427">
        <ele>34.26416</ele>
        <time>2009-11-04T08:20:15Z</time>
      </trkpt>
      <trkpt lat="47.32419" lon="-1.93413">
        <ele>33.30286</ele>
        <time>2009-11-04T08:20:20Z</time>
      </trkpt>
      <trkpt lat="47.32408" lon="-1.93408">
        <ele>33.30286</ele>
        <time>2009-11-04T08:20:25Z</time>
      </trkpt>
      <trkpt lat="47.32408" lon="-1.93408">
        <ele>31.86072</ele>
        <time>2009-11-04T08:20:30Z</time>
      </trkpt>
      <trkpt lat="47.32415" lon="-1.93408">
        <ele>31.86072</ele>
        <time>2009-11-04T08:20:35Z</time>
      </trkpt>
      <trkpt lat="47.32424" lon="-1.93393">
        <ele>32.34155</ele>
        <time>2009-11-04T08:20:40Z</time>
      </trkpt>
      <trkpt lat="47.32437" lon="-1.9335">
        <ele>31.86072</ele>
        <time>2009-11-04T08:20:48Z</time>
      </trkpt>
      <trkpt lat="47.32444" lon="-1.93325">
        <ele>31.86072</ele>
        <time>2009-11-04T08:20:52Z</time>
      </trkpt>
      <trkpt lat="47.32448" lon="-1.93294">
        <ele>32.34155</ele>
        <time>2009-11-04T08:20:57Z</time>
      </trkpt>
      <trkpt lat="47.32457" lon="-1.93273">
        <ele>31.38013</ele>
        <time>2009-11-04T08:21:02Z</time>
      </trkpt>
      <trkpt lat="47.32475" lon="-1.93258">
        <ele>30.89954</ele>
        <time>2009-11-04T08:21:08Z</time>
      </trkpt>
      <trkpt lat="47.32479" lon="-1.93253">
        <ele>30.89954</ele>
        <time>2009-11-04T08:21:12Z</time>
      </trkpt>
      <trkpt lat="47.32479" lon="-1.93251">
        <ele>31.38013</ele>
        <time>2009-11-04T08:21:17Z</time>
      </trkpt>
      <trkpt lat="47.32472" lon="-1.93239">
        <ele>30.41882</ele>
        <time>2009-11-04T08:21:22Z</time>
      </trkpt>
      <trkpt lat="47.32463" lon="-1.93227">
        <ele>30.89954</ele>
        <time>2009-11-04T08:21:26Z</time>
      </trkpt>
      <trkpt lat="47.32453" lon="-1.93233">
        <ele>30.89954</ele>
        <time>2009-11-04T08:21:31Z</time>
      </trkpt>
      <trkpt lat="47.32449" lon="-1.93237">
        <ele>31.38013</ele>
        <time>2009-11-04T08:21:35Z</time>
      </trkpt>
      <trkpt lat="47.32447" lon="-1.93235">
        <ele>30.89954</ele>
        <time>2009-11-04T08:21:42Z</time>
      </trkpt>
      <trkpt lat="47.32446" lon="-1.93231">
        <ele>30.89954</ele>
        <time>2009-11-04T08:21:50Z</time>
      </trkpt>
      <trkpt lat="47.32446" lon="-1.93228">
        <ele>30.89954</ele>
        <time>2009-11-04T08:22:06Z</time>
      </trkpt>
      <trkpt lat="47.32446" lon="-1.93226">
        <ele>29.93811</ele>
        <time>2009-11-04T08:22:15Z</time>
      </trkpt>
      <trkpt lat="47.32449" lon="-1.93203">
        <ele>29.45752</ele>
        <time>2009-11-04T08:22:22Z</time>
      </trkpt>
      <trkpt lat="47.32454" lon="-1.93165">
        <ele>29.93811</ele>
        <time>2009-11-04T08:22:30Z</time>
      </trkpt>
      <trkpt lat="47.32458" lon="-1.93126">
        <ele>29.45752</ele>
        <time>2009-11-04T08:22:37Z</time>
      </trkpt>
      <trkpt lat="47.32461" lon="-1.93099">
        <ele>28.97693</ele>
        <time>2009-11-04T08:22:43Z</time>
      </trkpt>
      <trkpt lat="47.32464" lon="-1.93072">
        <ele>29.45752</ele>
        <time>2009-11-04T08:22:48Z</time>
      </trkpt>
      <trkpt lat="47.32467" lon="-1.93044">
        <ele>28.97693</ele>
        <time>2009-11-04T08:22:54Z</time>
      </trkpt>
      <trkpt lat="47.3247" lon="-1.93016">
        <ele>29.45752</ele>
        <time>2009-11-04T08:23:00Z</time>
      </trkpt>
      <trkpt lat="47.32472" lon="-1.92994">
        <ele>28.97693</ele>
        <time>2009-11-04T08:23:05Z</time>
      </trkpt>
      <trkpt lat="47.32475" lon="-1.92966">
        <ele>28.49622</ele>
        <time>2009-11-04T08:23:11Z</time>
      </trkpt>
      <trkpt lat="47.32478" lon="-1.92934">
        <ele>28.49622</ele>
        <time>2009-11-04T08:23:18Z</time>
      </trkpt>
      <trkpt lat="47.32481" lon="-1.92898">
        <ele>28.49622</ele>
        <time>2009-11-04T08:23:25Z</time>
      </trkpt>
      <trkpt lat="47.32485" lon="-1.92862">
        <ele>28.0155</ele>
        <time>2009-11-04T08:23:32Z</time>
      </trkpt>
      <trkpt lat="47.32488" lon="-1.92833">
        <ele>28.0155</ele>
        <time>2009-11-04T08:23:38Z</time>
      </trkpt>
      <trkpt lat="47.3249" lon="-1.92806">
        <ele>28.0155</ele>
        <time>2009-11-04T08:23:44Z</time>
      </trkpt>
      <trkpt lat="47.32493" lon="-1.92778">
        <ele>28.0155</ele>
        <time>2009-11-04T08:23:50Z</time>
      </trkpt>
      <trkpt lat="47.32496" lon="-1.92743">
        <ele>27.53491</ele>
        <time>2009-11-04T08:23:57Z</time>
      </trkpt>
      <trkpt lat="47.32498" lon="-1.92725">
        <ele>27.53491</ele>
        <time>2009-11-04T08:24:02Z</time>
      </trkpt>
      <trkpt lat="47.32501" lon="-1.92695">
        <ele>27.53491</ele>
        <time>2009-11-04T08:24:08Z</time>
      </trkpt>
      <trkpt lat="47.32505" lon="-1.92652">
        <ele>27.05432</ele>
        <time>2009-11-04T08:24:17Z</time>
      </trkpt>
      <trkpt lat="47.32506" lon="-1.9264">
        <ele>27.53491</ele>
        <time>2009-11-04T08:24:20Z</time>
      </trkpt>
      <trkpt lat="47.32513" lon="-1.92627">
        <ele>27.05432</ele>
        <time>2009-11-04T08:24:24Z</time>
      </trkpt>
      <trkpt lat="47.32531" lon="-1.92607">
        <ele>26.57361</ele>
        <time>2009-11-04T08:24:30Z</time>
      </trkpt>
      <trkpt lat="47.32548" lon="-1.92587">
        <ele>27.05432</ele>
        <time>2009-11-04T08:24:36Z</time>
      </trkpt>
      <trkpt lat="47.32562" lon="-1.92578">
        <ele>26.57361</ele>
        <time>2009-11-04T08:24:41Z</time>
      </trkpt>
      <trkpt lat="47.32567" lon="-1.92545">
        <ele>27.05432</ele>
        <time>2009-11-04T08:24:48Z</time>
      </trkpt>
      <trkpt lat="47.3257" lon="-1.92514">
        <ele>27.05432</ele>
        <time>2009-11-04T08:24:53Z</time>
      </trkpt>
      <trkpt lat="47.32576" lon="-1.92459">
        <ele>26.57361</ele>
        <time>2009-11-04T08:25:02Z</time>
      </trkpt>
      <trkpt lat="47.32582" lon="-1.92409">
        <ele>27.05432</ele>
        <time>2009-11-04T08:25:10Z</time>
      </trkpt>
      <trkpt lat="47.3259" lon="-1.92374">
        <ele>27.05432</ele>
        <time>2009-11-04T08:25:16Z</time>
      </trkpt>
      <trkpt lat="47.32592" lon="-1.92362">
        <ele>27.05432</ele>
        <time>2009-11-04T08:25:18Z</time>
      </trkpt>
      <trkpt lat="47.32583" lon="-1.92346">
        <ele>27.05432</ele>
        <time>2009-11-04T08:25:22Z</time>
      </trkpt>
      <trkpt lat="47.32579" lon="-1.92344">
        <ele>27.53491</ele>
        <time>2009-11-04T08:25:23Z</time>
      </trkpt>
      <trkpt lat="47.32554" lon="-1.92324">
        <ele>27.53491</ele>
        <time>2009-11-04T08:25:30Z</time>
      </trkpt>
      <trkpt lat="47.3254" lon="-1.92294">
        <ele>28.0155</ele>
        <time>2009-11-04T08:25:36Z</time>
      </trkpt>
      <trkpt lat="47.32523" lon="-1.92234">
        <ele>28.0155</ele>
        <time>2009-11-04T08:25:46Z</time>
      </trkpt>
      <trkpt lat="47.32509" lon="-1.92192">
        <ele>27.53491</ele>
        <time>2009-11-04T08:25:53Z</time>
      </trkpt>
      <trkpt lat="47.32504" lon="-1.92181">
        <ele>28.0155</ele>
        <time>2009-11-04T08:25:55Z</time>
      </trkpt>
      <trkpt lat="47.32487" lon="-1.92147">
        <ele>27.05432</ele>
        <time>2009-11-04T08:26:01Z</time>
      </trkpt>
      <trkpt lat="47.32475" lon="-1.92109">
        <ele>27.53491</ele>
        <time>2009-11-04T08:26:07Z</time>
      </trkpt>
      <trkpt lat="47.32475" lon="-1.92095">
        <ele>28.0155</ele>
        <time>2009-11-04T08:26:09Z</time>
      </trkpt>
      <trkpt lat="47.32475" lon="-1.92023">
        <ele>29.45752</ele>
        <time>2009-11-04T08:26:19Z</time>
      </trkpt>
      <trkpt lat="47.32472" lon="-1.91998">
        <ele>30.89954</ele>
        <time>2009-11-04T08:26:23Z</time>
      </trkpt>
      <trkpt lat="47.32461" lon="-1.91933">
        <ele>33.30286</ele>
        <time>2009-11-04T08:26:33Z</time>
      </trkpt>
      <trkpt lat="47.32449" lon="-1.91867">
        <ele>34.26416</ele>
        <time>2009-11-04T08:26:43Z</time>
      </trkpt>
      <trkpt lat="47.32438" lon="-1.91801">
        <ele>35.70605</ele>
        <time>2009-11-04T08:26:53Z</time>
      </trkpt>
      <trkpt lat="47.32422" lon="-1.91751">
        <ele>34.74487</ele>
        <time>2009-11-04T08:27:01Z</time>
      </trkpt>
      <trkpt lat="47.32405" lon="-1.91717">
        <ele>34.74487</ele>
        <time>2009-11-04T08:27:07Z</time>
      </trkpt>
      <trkpt lat="47.32399" lon="-1.91704">
        <ele>34.74487</ele>
        <time>2009-11-04T08:27:09Z</time>
      </trkpt>
      <trkpt lat="47.32388" lon="-1.91653">
        <ele>33.78345</ele>
        <time>2009-11-04T08:27:16Z</time>
      </trkpt>
      <trkpt lat="47.32376" lon="-1.916">
        <ele>32.34155</ele>
        <time>2009-11-04T08:27:23Z</time>
      </trkpt>
      <trkpt lat="47.32373" lon="-1.91593">
        <ele>32.82227</ele>
        <time>2009-11-04T08:27:24Z</time>
      </trkpt>
      <trkpt lat="47.3236" lon="-1.91569">
        <ele>32.82227</ele>
        <time>2009-11-04T08:27:28Z</time>
      </trkpt>
      <trkpt lat="47.32331" lon="-1.9153">
        <ele>31.86072</ele>
        <time>2009-11-04T08:27:36Z</time>
      </trkpt>
      <trkpt lat="47.32298" lon="-1.91487">
        <ele>31.38013</ele>
        <time>2009-11-04T08:27:45Z</time>
      </trkpt>
      <trkpt lat="47.32271" lon="-1.91453">
        <ele>30.89954</ele>
        <time>2009-11-04T08:27:53Z</time>
      </trkpt>
      <trkpt lat="47.32251" lon="-1.91426">
        <ele>31.86072</ele>
        <time>2009-11-04T08:28:00Z</time>
      </trkpt>
      <trkpt lat="47.32234" lon="-1.91406">
        <ele>32.82227</ele>
        <time>2009-11-04T08:28:06Z</time>
      </trkpt>
      <trkpt lat="47.3221" lon="-1.91381">
        <ele>32.82227</ele>
        <time>2009-11-04T08:28:13Z</time>
      </trkpt>
      <trkpt lat="47.32185" lon="-1.91355">
        <ele>33.30286</ele>
        <time>2009-11-04T08:28:20Z</time>
      </trkpt>
      <trkpt lat="47.3216" lon="-1.91327">
        <ele>34.26416</ele>
        <time>2009-11-04T08:28:27Z</time>
      </trkpt>
      <trkpt lat="47.32131" lon="-1.91296">
        <ele>34.26416</ele>
        <time>2009-11-04T08:28:35Z</time>
      </trkpt>
      <trkpt lat="47.3211" lon="-1.91267">
        <ele>36.18677</ele>
        <time>2009-11-04T08:28:42Z</time>
      </trkpt>
      <trkpt lat="47.32084" lon="-1.91231">
        <ele>38.10938</ele>
        <time>2009-11-04T08:28:50Z</time>
      </trkpt>
      <trkpt lat="47.32062" lon="-1.912">
        <ele>38.10938</ele>
        <time>2009-11-04T08:28:57Z</time>
      </trkpt>
      <trkpt lat="47.32056" lon="-1.912">
        <ele>38.59009</ele>
        <time>2009-11-04T08:29:01Z</time>
      </trkpt>
      <trkpt lat="47.32044" lon="-1.91212">
        <ele>38.10938</ele>
        <time>2009-11-04T08:29:05Z</time>
      </trkpt>
      <trkpt lat="47.32017" lon="-1.91225">
        <ele>38.10938</ele>
        <time>2009-11-04T08:29:12Z</time>
      </trkpt>
      <trkpt lat="47.32003" lon="-1.91218">
        <ele>38.59009</ele>
        <time>2009-11-04T08:29:17Z</time>
      </trkpt>
      <trkpt lat="47.32001" lon="-1.912">
        <ele>39.07068</ele>
        <time>2009-11-04T08:29:21Z</time>
      </trkpt>
      <trkpt lat="47.32007" lon="-1.91151">
        <ele>40.0321</ele>
        <time>2009-11-04T08:29:29Z</time>
      </trkpt>
      <trkpt lat="47.32015" lon="-1.91088">
        <ele>40.51282</ele>
        <time>2009-11-04T08:29:39Z</time>
      </trkpt>
      <trkpt lat="47.32015" lon="-1.91075">
        <ele>40.51282</ele>
        <time>2009-11-04T08:29:42Z</time>
      </trkpt>
      <trkpt lat="47.32018" lon="-1.91042">
        <ele>40.99341</ele>
        <time>2009-11-04T08:29:48Z</time>
      </trkpt>
      <trkpt lat="47.32022" lon="-1.91017">
        <ele>40.99341</ele>
        <time>2009-11-04T08:29:54Z</time>
      </trkpt>
      <trkpt lat="47.32026" lon="-1.91005">
        <ele>40.99341</ele>
        <time>2009-11-04T08:30:00Z</time>
      </trkpt>
    </trkseg>
  </trk>
</gpx>